Time;durP1;ratioP1;P1;durP2;ratioP2;P2;SDS_P1;SDS_P2;PMS_P1;PMS_P2;Temp;Humidity;BMP_temperature;BMP_pressure;BME280_temperature;BME280_humidity;BME280_pressure;Samples;Min_cycle;Max_cycle;Signal;HPM_P1;HPM_P2
2023/01/04 00:01:09;;;;;;;11.40;3.67;;;5.80;97.30;;;;;;4952972;28;20938;-88
2023/01/04 00:03:35;;;;;;;1.50;1.40;;;5.80;97.30;;;;;;4955483;29;20222;-87
2023/01/04 00:06:03;;;;;;;2.33;2.13;;;5.80;97.30;;;;;;4957025;29;20501;-86
2023/01/04 00:08:29;;;;;;;3.17;2.07;;;5.80;97.30;;;;;;4955831;29;20175;-87
2023/01/04 00:11:07;;;;;;;2.83;2.67;;;5.80;97.30;;;;;;4957199;28;20473;-86
2023/01/04 00:13:33;;;;;;;1.70;1.60;;;5.80;97.30;;;;;;4955761;29;20433;-86
2023/01/04 00:16:02;;;;;;;7.37;2.73;;;5.80;97.30;;;;;;4956858;28;20407;-89
2023/01/04 00:18:29;;;;;;;1.87;1.40;;;5.80;97.30;;;;;;4956912;28;20343;-87
2023/01/04 00:21:04;;;;;;;1.60;1.50;;;5.80;97.30;;;;;;4955773;29;20454;-87
2023/01/04 00:23:29;;;;;;;1.93;1.83;;;5.80;97.30;;;;;;4955713;29;20458;-87
2023/01/04 00:25:55;;;;;;;2.20;2.03;;;5.70;97.30;;;;;;4955672;29;20473;-87
2023/01/04 00:28:20;;;;;;;1.23;1.13;;;5.70;97.30;;;;;;4955453;29;20211;-87
2023/01/04 00:30:46;;;;;;;1.90;1.77;;;5.70;97.30;;;;;;4956491;29;20191;-87
2023/01/04 00:33:11;;;;;;;1.77;1.67;;;5.70;97.30;;;;;;4955569;29;20608;-87
2023/01/04 00:35:37;;;;;;;1.83;1.77;;;5.70;97.30;;;;;;4955477;29;20215;-87
2023/01/04 00:38:02;;;;;;;2.30;1.63;;;5.60;97.30;;;;;;4955325;29;20183;-87
2023/01/04 00:40:27;;;;;;;1.60;1.50;;;5.60;97.30;;;;;;4955422;29;20207;-88
2023/01/04 00:42:53;;;;;;;2.13;1.97;;;5.60;97.30;;;;;;4955193;29;20207;-86
2023/01/04 00:45:18;;;;;;;1.37;1.27;;;5.50;97.30;;;;;;4955584;29;20186;-87
2023/01/04 00:47:44;;;;;;;1.20;1.10;;;5.50;97.30;;;;;;4955082;29;20182;-86
2023/01/04 00:50:09;;;;;;;2.70;1.57;;;5.50;97.30;;;;;;4954598;29;20636;-86
2023/01/04 00:52:35;;;;;;;1.40;1.30;;;5.40;97.30;;;;;;4954791;29;20218;-87
2023/01/04 00:55:00;;;;;;;1.30;1.20;;;5.40;97.30;;;;;;4955153;29;20347;-87
2023/01/04 00:57:26;;;;;;;3.53;2.80;;;5.40;97.30;;;;;;4955105;29;20746;-86
2023/01/04 00:59:51;;;;;;;3.00;1.97;;;5.40;97.30;;;;;;4955350;29;20202;-86
2023/01/04 01:02:16;;;;;;;1.40;1.30;;;5.40;97.30;;;;;;4954433;29;20342;-87
2023/01/04 01:04:42;;;;;;;1.93;1.83;;;5.30;97.30;;;;;;4955009;29;20203;-87
2023/01/04 01:07:07;;;;;;;1.43;1.33;;;5.30;97.30;;;;;;4954778;29;20631;-87
2023/01/04 01:09:33;;;;;;;2.67;2.40;;;5.30;97.30;;;;;;4954719;29;20177;-87
2023/01/04 01:11:58;;;;;;;2.00;1.90;;;5.30;97.30;;;;;;4954796;28;20183;-86
2023/01/04 01:14:25;;;;;;;2.40;2.20;;;5.20;97.30;;;;;;4967713;28;20691;-88
2023/01/04 01:16:51;;;;;;;2.10;1.43;;;5.20;97.30;;;;;;4973786;28;20190;-87
2023/01/04 01:19:16;;;;;;;15.70;1.80;;;5.20;97.30;;;;;;4973941;28;20422;-87
2023/01/04 01:21:42;;;;;;;3.27;2.97;;;5.20;97.30;;;;;;4973734;28;21224;-87
2023/01/04 01:24:15;;;;;;;1.70;1.60;;;5.20;97.30;;;;;;4973977;28;20182;-87
2023/01/04 01:26:40;;;;;;;3.30;2.37;;;5.10;97.30;;;;;;4973094;28;20791;-90
2023/01/04 01:29:06;;;;;;;1.80;1.70;;;5.10;97.30;;;;;;4964066;28;20419;-88
2023/01/04 01:31:31;;;;;;;1.73;1.63;;;5.10;97.30;;;;;;4954739;29;20195;-88
2023/01/04 01:33:57;;;;;;;1.83;1.73;;;5.20;97.30;;;;;;4954829;29;20178;-89
2023/01/04 01:36:25;;;;;;;1.30;1.20;;;5.20;97.30;;;;;;4954863;29;20730;-86
2023/01/04 01:38:50;;;;;;;1.20;1.10;;;5.20;97.30;;;;;;4954799;29;20176;-87
2023/01/04 01:41:24;;;;;;;3.43;2.27;;;5.20;97.30;;;;;;4954078;29;20501;-87
2023/01/04 01:43:56;;;;;;;2.93;2.73;;;5.20;97.30;;;;;;4954179;29;20198;-86
2023/01/04 01:46:41;;;;;;;3.90;3.03;;;5.10;97.30;;;;;;4954378;29;20807;-87
2023/01/04 01:49:31;;;;;;;2.50;1.63;;;5.20;97.30;;;;;;4953975;29;20422;-87
2023/01/04 01:52:00;;;;;;;2.03;1.90;;;5.10;97.30;;;;;;4958834;28;20426;-87
2023/01/04 01:54:31;;;;;;;4.73;2.03;;;5.10;97.30;;;;;;4973483;28;20422;-87
2023/01/04 01:56:59;;;;;;;1.80;1.70;;;5.20;97.30;;;;;;4973318;28;20420;-87
2023/01/04 01:59:26;;;;;;;1.40;1.30;;;5.20;97.30;;;;;;4973172;28;20425;-88
2023/01/04 02:01:51;;;;;;;2.40;2.20;;;5.20;97.30;;;;;;4973113;28;20547;-87
2023/01/04 02:04:17;;;;;;;6.63;2.03;;;5.20;97.30;;;;;;4973340;28;20830;-86
2023/01/04 02:06:47;;;;;;;3.63;2.03;;;5.20;97.30;;;;;;4969176;28;20175;-87
2023/01/04 02:09:13;;;;;;;1.53;1.43;;;5.20;97.30;;;;;;4968329;28;20637;-87
2023/01/04 02:11:38;;;;;;;1.30;1.20;;;5.20;97.30;;;;;;4972857;28;20458;-86
2023/01/04 02:17:13;;;;;;;2.17;2.00;;;5.20;97.30;;;;;;4974393;28;20249;-86
2023/01/04 02:20:13;;;;;;;1.37;1.27;;;5.30;97.30;;;;;;4972670;28;20496;-87
2023/01/04 02:23:13;;;;;;;1.53;1.43;;;5.40;97.30;;;;;;4971225;28;20462;-86
2023/01/04 02:26:12;;;;;;;1.93;1.50;;;5.40;97.30;;;;;;4963221;28;20446;-87
2023/01/04 02:29:24;;;;;;;1.93;1.83;;;5.60;97.30;;;;;;4972763;28;20406;-87
2023/01/04 02:31:57;;;;;;;1.50;1.40;;;5.60;97.30;;;;;;4973798;28;20417;-86
2023/01/04 02:34:29;;;;;;;1.40;1.30;;;5.70;97.30;;;;;;4972277;28;20418;-86
2023/01/04 02:37:19;;;;;;;1.40;1.30;;;5.70;97.30;;;;;;4963718;28;20430;-85
2023/01/04 02:39:56;;;;;;;3.10;2.90;;;5.70;97.30;;;;;;4953193;28;20538;-86
2023/01/04 02:45:42;;;;;;;2.07;1.67;;;5.80;97.30;;;;;;4954674;29;20503;-86
2023/01/04 02:50:57;;;;;;;1.60;1.50;;;5.80;97.30;;;;;;4954100;29;20493;-86
2023/01/04 02:53:33;;;;;;;1.63;1.53;;;5.80;97.30;;;;;;4952994;29;20525;-86
2023/01/04 02:56:13;;;;;;;3.23;3.03;;;5.80;97.30;;;;;;4954169;28;20415;-90
2023/01/04 02:59:20;;;;;;;1.97;1.87;;;5.80;97.30;;;;;;4952939;29;20415;-85
2023/01/04 03:08:06;;;;;;;1.27;1.17;;;5.80;97.30;;;;;;4954287;29;20406;-87
2023/01/04 03:10:43;;;;;;;1.77;1.67;;;5.70;97.30;;;;;;4952178;29;20442;-87
2023/01/04 03:13:38;;;;;;;1.67;1.57;;;5.70;97.30;;;;;;4954405;28;20921;-87
2023/01/04 03:16:12;;;;;;;1.47;1.37;;;5.70;97.30;;;;;;4951317;29;20418;-87
2023/01/04 03:18:44;;;;;;;12.53;2.00;;;5.70;97.30;;;;;;4952765;29;20422;-86
2023/01/04 03:21:12;;;;;;;1.93;1.40;;;5.60;97.30;;;;;;4952664;29;20462;-87
2023/01/04 03:49:46;;;;;;;3.50;3.30;;;5.40;97.30;;;;;;4957556;29;20414;-87
2023/01/04 03:52:14;;;;;;;1.87;1.37;;;5.40;97.30;;;;;;4989503;23;20500;-83
2023/01/04 03:54:43;;;;;;;3.27;2.37;;;5.50;97.30;;;;;;5009451;28;20456;-82
2023/01/04 03:57:11;;;;;;;4.67;3.90;;;5.40;97.30;;;;;;4996178;28;20827;-82
2023/01/04 03:59:48;;;;;;;2.43;1.90;;;5.50;97.30;;;;;;4995860;28;20405;-86
2023/01/04 04:02:18;;;;;;;3.33;2.90;;;5.50;97.30;;;;;;4992250;28;20547;-86
2023/01/04 04:10:13;;;;;;;1.30;1.20;;;5.60;97.30;;;;;;4993661;28;20517;-86
2023/01/04 04:12:39;;;;;;;5.83;3.20;;;5.60;97.30;;;;;;5011392;28;20468;-86
2023/01/04 04:15:05;;;;;;;1.23;1.13;;;5.70;97.30;;;;;;4994868;28;20178;-87
2023/01/04 04:17:30;;;;;;;3.37;2.43;;;5.80;97.30;;;;;;4995018;28;20681;-86
2023/01/04 04:19:56;;;;;;;1.70;1.63;;;5.80;97.30;;;;;;4994813;28;20425;-87
2023/01/04 04:22:21;;;;;;;4.40;2.23;;;5.80;97.30;;;;;;4994869;28;20202;-84
2023/01/04 04:24:47;;;;;;;1.50;1.40;;;5.80;97.30;;;;;;4994852;28;20209;-86
2023/01/04 04:27:12;;;;;;;1.10;1.00;;;5.80;97.30;;;;;;4994673;28;20181;-87
2023/01/04 04:29:38;;;;;;;2.60;2.23;;;5.80;97.30;;;;;;4993861;28;20240;-89
2023/01/04 04:32:03;;;;;;;1.50;1.40;;;5.80;97.30;;;;;;4995166;28;20756;-86
2023/01/04 04:34:29;;;;;;;1.63;1.53;;;5.90;97.30;;;;;;4994942;28;20182;-86
2023/01/04 04:36:54;;;;;;;9.00;2.87;;;5.80;97.30;;;;;;4994094;28;20612;-86
2023/01/04 04:39:20;;;;;;;1.73;1.63;;;5.80;97.30;;;;;;4994345;28;20189;-86
2023/01/04 04:41:45;;;;;;;2.07;1.93;;;5.80;97.30;;;;;;4994536;28;20216;-87
2023/01/04 04:44:13;;;;;;;3.07;2.00;;;5.80;97.30;;;;;;4994837;28;20201;-86
2023/01/04 04:46:39;;;;;;;2.00;1.87;;;5.90;97.30;;;;;;4977646;28;20266;-86
2023/01/04 04:49:05;;;;;;;10.03;2.80;;;5.90;97.30;;;;;;4987776;28;20438;-89
2023/01/04 04:51:31;;;;;;;1.50;1.40;;;6.00;97.30;;;;;;5009794;28;20515;-88
2023/01/04 04:53:57;;;;;;;1.30;1.20;;;6.00;97.30;;;;;;4994984;28;20182;-87
2023/01/04 04:56:22;;;;;;;3.13;2.80;;;6.10;97.30;;;;;;4980860;28;20433;-86
2023/01/04 04:58:48;;;;;;;1.30;1.20;;;6.10;97.30;;;;;;4975329;28;20555;-86
2023/01/04 05:01:14;;;;;;;1.80;1.63;;;6.10;97.30;;;;;;4976076;28;20194;-86
2023/01/04 05:03:40;;;;;;;1.53;1.50;;;6.20;97.30;;;;;;4974224;28;20504;-86
2023/01/04 05:06:05;;;;;;;2.60;2.27;;;6.30;97.30;;;;;;4974212;28;20481;-87
2023/01/04 05:08:31;;;;;;;1.10;1.00;;;6.30;97.30;;;;;;4974614;28;20225;-88
2023/01/04 05:10:57;;;;;;;1.27;1.17;;;6.40;97.30;;;;;;4974193;28;20217;-88
2023/01/04 05:13:22;;;;;;;1.30;1.20;;;6.40;97.30;;;;;;4974247;28;20208;-87
2023/01/04 05:15:51;;;;;;;1.37;1.33;;;6.50;97.30;;;;;;4990679;28;20267;-88
2023/01/04 05:18:18;;;;;;;1.30;1.20;;;6.50;97.30;;;;;;4976021;28;20418;-86
2023/01/04 05:20:44;;;;;;;1.70;1.60;;;6.50;97.30;;;;;;4993507;28;20433;-86
2023/01/04 05:23:12;;;;;;;1.27;1.17;;;6.50;97.30;;;;;;4994011;28;20468;-87
2023/01/04 05:25:38;;;;;;;15.63;2.00;;;6.60;97.30;;;;;;4993750;28;20178;-87
2023/01/04 05:28:07;;;;;;;1.90;1.50;;;6.60;97.30;;;;;;4993154;28;20417;-88
2023/01/04 05:30:52;;;;;;;1.30;1.20;;;6.60;97.30;;;;;;4993214;28;20448;-90
2023/01/04 05:33:24;;;;;;;1.30;1.20;;;6.70;97.30;;;;;;4987725;28;20445;-87
2023/01/04 05:35:51;;;;;;;2.50;1.53;;;6.70;97.30;;;;;;4980911;28;20412;-86
2023/01/04 05:38:17;;;;;;;4.40;2.40;;;6.80;97.30;;;;;;4977162;28;20459;-86
2023/01/04 05:40:43;;;;;;;1.20;1.10;;;6.80;97.30;;;;;;4994439;28;20512;-86
2023/01/04 05:43:09;;;;;;;2.07;1.93;;;6.90;97.30;;;;;;4984418;28;21103;-89
2023/01/04 05:45:34;;;;;;;1.17;1.07;;;6.90;97.30;;;;;;4973617;28;20971;-85
2023/01/04 05:48:00;;;;;;;1.30;1.20;;;7.00;97.30;;;;;;4974777;28;20198;-86
2023/01/04 05:50:25;;;;;;;1.40;1.30;;;7.00;97.30;;;;;;4974464;28;20230;-86
2023/01/04 05:52:51;;;;;;;1.07;0.97;;;7.10;97.30;;;;;;4974200;28;20222;-86
2023/01/04 05:55:17;;;;;;;1.10;1.00;;;7.10;97.30;;;;;;4973980;28;20189;-88
2023/01/04 05:57:43;;;;;;;1.40;1.30;;;7.10;97.30;;;;;;4984933;28;20448;-85
2023/01/04 06:00:17;;;;;;;2.00;1.33;;;7.10;97.30;;;;;;4992183;28;20417;-87
2023/01/04 06:02:43;;;;;;;1.57;1.27;;;7.10;97.30;;;;;;4992797;28;20258;-86
2023/01/04 06:05:09;;;;;;;2.13;1.97;;;7.10;97.30;;;;;;4992864;28;20942;-86
2023/01/04 06:07:35;;;;;;;1.47;1.37;;;7.20;97.30;;;;;;4993004;28;20252;-87
2023/01/04 06:10:01;;;;;;;1.57;1.40;;;7.20;97.30;;;;;;4992877;28;20421;-84
2023/01/04 06:12:26;;;;;;;1.20;1.20;;;7.20;97.30;;;;;;4992562;28;20459;-87
2023/01/04 06:14:52;;;;;;;1.50;1.40;;;7.30;97.30;;;;;;4992764;28;20184;-86
2023/01/04 06:17:17;;;;;;;2.43;2.23;;;7.30;97.30;;;;;;4992212;28;20189;-88
2023/01/04 06:19:43;;;;;;;1.90;1.80;;;7.40;97.30;;;;;;4992306;28;20182;-85
2023/01/04 06:22:08;;;;;;;1.63;1.53;;;7.40;97.30;;;;;;4992259;28;20221;-86
2023/01/04 06:24:34;;;;;;;2.77;1.87;;;7.40;97.30;;;;;;4992568;28;20265;-84
2023/01/04 06:27:01;;;;;;;1.97;1.83;;;7.40;97.30;;;;;;4992416;28;20216;-86
2023/01/04 06:29:27;;;;;;;2.07;1.93;;;7.40;97.30;;;;;;4992475;28;20266;-86
2023/01/04 06:31:52;;;;;;;1.33;1.20;;;7.50;97.30;;;;;;4979702;28;20473;-87
2023/01/04 06:34:18;;;;;;;1.77;1.50;;;7.50;97.30;;;;;;4972872;28;20182;-85
2023/01/04 06:36:43;;;;;;;1.30;1.20;;;7.50;97.30;;;;;;4974785;28;20175;-87
2023/01/04 06:39:09;;;;;;;2.07;1.57;;;7.50;97.30;;;;;;4974224;28;20607;-87
2023/01/04 06:41:34;;;;;;;1.00;0.90;;;7.50;97.30;;;;;;4972869;28;20198;-87
2023/01/04 06:44:00;;;;;;;6.53;2.70;;;7.40;97.30;;;;;;4973128;28;20262;-87
2023/01/04 06:46:26;;;;;;;1.33;1.23;;;7.30;97.30;;;;;;4974115;28;20171;-87
2023/01/04 06:48:52;;;;;;;4.83;4.03;;;7.30;97.30;;;;;;4974239;28;20897;-87
2023/01/04 06:51:19;;;;;;;3.33;2.07;;;7.20;97.30;;;;;;4972194;28;20281;-85
2023/01/04 06:53:45;;;;;;;3.37;3.23;;;7.20;97.30;;;;;;4972682;28;20418;-84
2023/01/04 06:56:10;;;;;;;1.50;1.40;;;7.20;97.30;;;;;;4972486;28;20429;-84
2023/01/04 06:58:36;;;;;;;2.23;2.07;;;7.10;97.30;;;;;;4984613;28;20276;-82
2023/01/04 07:01:02;;;;;;;2.90;1.77;;;7.10;97.30;;;;;;4990201;28;20186;-84
2023/01/04 07:03:27;;;;;;;4.87;2.20;;;7.10;97.30;;;;;;4977340;28;20526;-85
2023/01/04 07:05:53;;;;;;;1.87;1.73;;;7.10;97.30;;;;;;4970917;28;20426;-85
2023/01/04 07:08:19;;;;;;;3.93;3.47;;;7.10;97.30;;;;;;4970624;28;20182;-87
2023/01/04 07:10:44;;;;;;;1.83;1.73;;;7.10;97.30;;;;;;4970664;28;20186;-84
2023/01/04 07:13:11;;;;;;;6.63;2.27;;;7.10;97.30;;;;;;4974342;28;20568;-85
2023/01/04 07:15:37;;;;;;;2.43;2.23;;;7.10;97.30;;;;;;4981385;28;20213;-84
2023/01/04 07:18:02;;;;;;;1.47;1.37;;;7.10;97.30;;;;;;4989283;28;20676;-84
2023/01/04 07:20:28;;;;;;;1.33;1.23;;;7.00;97.30;;;;;;4979854;28;20422;-84
2023/01/04 07:22:53;;;;;;;1.97;1.83;;;7.00;97.30;;;;;;4981873;28;20238;-85
2023/01/04 07:25:19;;;;;;;1.93;1.80;;;7.00;97.30;;;;;;4983820;28;20170;-84
2023/01/04 07:27:50;;;;;;;1.73;1.63;;;6.90;97.30;;;;;;4974414;28;20765;-84
2023/01/04 07:30:15;;;;;;;6.03;1.80;;;6.90;97.30;;;;;;4979453;28;20270;-85
2023/01/04 07:32:44;;;;;;;1.63;1.53;;;6.90;97.30;;;;;;4986555;28;20938;-85
2023/01/04 07:35:09;;;;;;;1.53;1.43;;;6.90;97.30;;;;;;4979724;28;20182;-85
2023/01/04 07:37:35;;;;;;;1.40;1.30;;;6.90;97.30;;;;;;4982577;28;20425;-84
2023/01/04 07:40:00;;;;;;;1.57;1.30;;;6.90;97.30;;;;;;4984091;28;20182;-86
2023/01/04 07:42:26;;;;;;;4.20;2.63;;;6.90;97.30;;;;;;4983367;28;20808;-85
2023/01/04 07:44:51;;;;;;;1.30;1.20;;;6.90;97.30;;;;;;4984300;28;20177;-84
2023/01/04 07:47:17;;;;;;;1.93;1.83;;;6.90;97.30;;;;;;4974756;28;20178;-85
2023/01/04 07:49:42;;;;;;;1.10;1.00;;;6.90;97.30;;;;;;4977665;28;20332;-82
2023/01/04 07:52:08;;;;;;;2.87;1.90;;;6.90;97.30;;;;;;4980382;28;20320;-85
2023/01/04 07:54:33;;;;;;;1.93;1.83;;;6.90;97.30;;;;;;4987481;28;20192;-87
2023/01/04 07:56:59;;;;;;;1.73;1.37;;;6.90;97.30;;;;;;4980907;28;20272;-85
2023/01/04 07:59:24;;;;;;;1.80;1.70;;;6.90;97.30;;;;;;4982706;28;20201;-83
2023/01/04 08:01:50;;;;;;;1.90;1.80;;;7.00;97.30;;;;;;4977172;28;20197;-86
2023/01/04 08:04:16;;;;;;;2.70;1.90;;;7.00;97.30;;;;;;4986414;28;20175;-85
2023/01/04 08:06:45;;;;;;;2.27;1.97;;;7.00;97.30;;;;;;4980809;28;20711;-84
2023/01/04 08:09:11;;;;;;;2.60;2.17;;;7.10;97.30;;;;;;4971875;28;21031;-87
2023/01/04 08:11:37;;;;;;;1.80;1.70;;;7.10;97.30;;;;;;4974675;28;20472;-85
2023/01/04 08:14:02;;;;;;;1.60;1.47;;;7.20;97.30;;;;;;4978837;28;21136;-87
2023/01/04 08:16:31;;;;;;;2.40;1.67;;;7.20;97.30;;;;;;4978552;28;20198;-85
2023/01/04 08:19:04;;;;;;;1.20;1.10;;;7.20;97.30;;;;;;4979636;28;20910;-85
2023/01/04 08:21:31;;;;;;;1.00;0.90;;;7.30;97.30;;;;;;4980203;28;20438;-87
2023/01/04 08:23:57;;;;;;;1.50;1.23;;;7.30;97.30;;;;;;4980330;28;21112;-85
2023/01/04 08:26:22;;;;;;;4.20;1.30;;;7.30;97.30;;;;;;4976698;28;20429;-85
2023/01/04 08:28:49;;;;;;;1.53;1.43;;;7.30;97.30;;;;;;4977817;28;20186;-86
2023/01/04 08:31:18;;;;;;;1.40;1.30;;;7.30;97.30;;;;;;4983044;28;20552;-84
2023/01/04 08:33:44;;;;;;;1.20;1.10;;;7.30;97.30;;;;;;4984346;28;20831;-85
2023/01/04 08:36:17;;;;;;;1.67;1.57;;;7.30;97.30;;;;;;4978061;28;20429;-86
2023/01/04 08:38:43;;;;;;;2.20;2.03;;;7.30;97.30;;;;;;4979833;28;20472;-87
2023/01/04 08:41:08;;;;;;;1.60;1.50;;;7.30;97.30;;;;;;4981131;28;20473;-89
2023/01/04 08:43:34;;;;;;;1.80;1.53;;;7.30;97.30;;;;;;4982533;28;20205;-85
2023/01/04 08:46:04;;;;;;;1.23;1.13;;;7.40;97.30;;;;;;4991972;28;20692;-85
2023/01/04 08:48:31;;;;;;;1.20;1.10;;;7.40;97.30;;;;;;4995745;28;20430;-85
2023/01/04 08:51:00;;;;;;;1.33;1.23;;;7.40;97.30;;;;;;4985678;28;20427;-89
2023/01/04 08:53:27;;;;;;;2.73;2.53;;;7.40;97.30;;;;;;5003394;28;20460;-89
2023/01/04 08:55:53;;;;;;;1.80;1.70;;;7.40;97.30;;;;;;4999377;28;20437;-87
2023/01/04 08:58:20;;;;;;;4.53;3.43;;;7.40;97.30;;;;;;4984340;28;20529;-83
2023/01/04 09:00:45;;;;;;;1.63;1.57;;;7.40;97.30;;;;;;4982375;28;20436;-87
2023/01/04 09:03:12;;;;;;;1.10;1.00;;;7.30;97.30;;;;;;4982157;28;20498;-87
2023/01/04 09:05:38;;;;;;;3.27;1.37;;;7.30;97.30;;;;;;4987601;28;20570;-87
2023/01/04 09:08:04;;;;;;;1.37;1.27;;;7.30;97.30;;;;;;4982231;28;20418;-86
2023/01/04 09:10:29;;;;;;;1.63;1.50;;;7.20;97.30;;;;;;4983359;28;20418;-84
2023/01/04 09:12:55;;;;;;;2.30;1.57;;;7.30;97.30;;;;;;4987725;28;20986;-89
2023/01/04 09:15:20;;;;;;;0.90;0.80;;;7.30;97.30;;;;;;4983737;28;20192;-87
2023/01/04 09:17:48;;;;;;;1.00;0.90;;;7.30;97.30;;;;;;4980981;28;20209;-86
2023/01/04 09:20:13;;;;;;;1.57;1.47;;;7.30;97.30;;;;;;4983663;28;20188;-86
2023/01/04 09:22:39;;;;;;;1.30;1.20;;;7.30;97.30;;;;;;4991969;28;20461;-85
2023/01/04 09:25:05;;;;;;;1.20;1.00;;;7.40;97.30;;;;;;4991718;28;20181;-87
2023/01/04 09:27:31;;;;;;;1.10;1.00;;;7.40;97.30;;;;;;4991700;28;20181;-87
2023/01/04 09:29:57;;;;;;;1.57;1.40;;;7.40;97.30;;;;;;4991690;28;20626;-86
2023/01/04 09:32:22;;;;;;;1.23;1.13;;;7.50;97.30;;;;;;4992776;28;20480;-86
2023/01/04 09:34:48;;;;;;;1.07;1.00;;;7.50;97.30;;;;;;4989315;28;20178;-87
2023/01/04 09:37:14;;;;;;;0.97;0.87;;;7.60;97.30;;;;;;4991758;28;20206;-86
2023/01/04 09:39:39;;;;;;;1.43;1.33;;;7.60;97.30;;;;;;4991413;28;20185;-86
2023/01/04 09:42:16;;;;;;;3.13;1.30;;;7.60;97.30;;;;;;4991318;28;20213;-86
2023/01/04 09:45:00;;;;;;;1.17;1.00;;;7.70;97.30;;;;;;4991462;28;20712;-86
2023/01/04 09:47:35;;;;;;;1.93;1.67;;;7.70;97.30;;;;;;4985767;28;20426;-87
2023/01/04 09:50:08;;;;;;;1.20;1.10;;;7.80;97.30;;;;;;4971931;28;20468;-86
2023/01/04 09:53:01;;;;;;;1.33;1.17;;;7.80;97.30;;;;;;5003111;23;20484;-87
2023/01/04 09:55:37;;;;;;;1.10;1.00;;;7.80;97.30;;;;;;5000503;28;20521;-86
2023/01/04 09:58:21;;;;;;;1.10;1.00;;;7.90;97.30;;;;;;4989090;28;20425;-86
2023/01/04 10:00:54;;;;;;;1.93;1.30;;;7.90;97.30;;;;;;4993190;28;20423;-87
2023/01/04 10:03:27;;;;;;;1.00;0.90;;;7.90;97.30;;;;;;4977728;28;20454;-87
2023/01/04 10:05:54;;;;;;;1.37;1.27;;;7.90;97.30;;;;;;4973532;28;20984;-86
2023/01/04 10:08:20;;;;;;;1.17;1.10;;;7.90;97.30;;;;;;4972043;28;20410;-84
2023/01/04 10:11:09;;;;;;;1.10;1.00;;;7.80;97.30;;;;;;4962316;28;20425;-84
2023/01/04 10:13:34;;;;;;;1.13;1.03;;;7.80;97.30;;;;;;4971617;28;20289;-84
2023/01/04 10:16:24;;;;;;;2.70;1.97;;;7.80;97.30;;;;;;4971273;28;20505;-86
2023/01/04 10:19:03;;;;;;;1.70;1.60;;;7.80;97.30;;;;;;4972092;28;20179;-84
2023/01/04 10:21:44;;;;;;;1.40;1.30;;;7.90;97.30;;;;;;4971543;28;20422;-87
2023/01/04 10:24:32;;;;;;;1.30;1.20;;;7.90;97.30;;;;;;4971544;28;20501;-84
2023/01/04 10:27:35;;;;;;;1.17;1.07;;;8.00;97.30;;;;;;4971506;28;20509;-85
2023/01/04 10:30:39;;;;;;;1.07;1.00;;;8.00;97.30;;;;;;4970032;28;20939;-83
2023/01/04 10:33:31;;;;;;;1.30;1.20;;;8.10;97.30;;;;;;4985438;28;20437;-86
2023/01/04 10:35:57;;;;;;;1.03;0.93;;;8.20;97.30;;;;;;4975312;28;20424;-85
2023/01/04 10:38:27;;;;;;;1.20;1.10;;;8.20;97.30;;;;;;4972387;28;20496;-86
2023/01/04 10:40:54;;;;;;;0.90;0.80;;;8.20;97.30;;;;;;4973053;28;20418;-82
2023/01/04 10:43:57;;;;;;;1.43;1.20;;;8.30;97.30;;;;;;4971770;28;20492;-84
2023/01/04 10:46:38;;;;;;;1.00;0.90;;;8.30;97.30;;;;;;4971474;28;20448;-84
2023/01/04 10:49:16;;;;;;;1.03;0.93;;;8.30;97.30;;;;;;4953146;29;20450;-83
2023/01/04 10:51:59;;;;;;;1.23;1.13;;;8.30;97.30;;;;;;4953122;29;20429;-83
2023/01/04 10:54:29;;;;;;;1.10;1.00;;;8.30;97.30;;;;;;4952357;29;20473;-84
2023/01/04 10:57:07;;;;;;;1.10;1.00;;;8.30;97.30;;;;;;4954613;28;20847;-83
2023/01/04 11:00:01;;;;;;;1.60;1.50;;;8.30;97.30;;;;;;4954607;28;20454;-85
2023/01/04 11:02:44;;;;;;;1.00;0.90;;;8.30;97.30;;;;;;4954281;29;20471;-85
2023/01/04 11:05:19;;;;;;;1.33;1.20;;;8.30;97.30;;;;;;4957607;29;20427;-85
2023/01/04 11:08:04;;;;;;;1.60;1.50;;;8.30;97.30;;;;;;4958296;29;20972;-84
2023/01/04 11:10:41;;;;;;;0.90;0.90;;;8.20;97.30;;;;;;4957711;29;20930;-84
2023/01/04 11:13:06;;;;;;;1.00;0.90;;;8.10;97.30;;;;;;4962388;29;20481;-86
2023/01/04 11:15:32;;;;;;;1.00;0.90;;;8.00;97.30;;;;;;4963975;29;20423;-84
2023/01/04 11:18:01;;;;;;;1.20;1.10;;;7.90;97.30;;;;;;4957410;28;20183;-85
2023/01/04 11:20:26;;;;;;;1.50;1.40;;;7.90;97.30;;;;;;4954654;29;20194;-85
2023/01/04 11:22:58;;;;;;;1.97;1.83;;;7.80;97.30;;;;;;4969440;28;20462;-88
2023/01/04 11:25:25;;;;;;;1.60;1.50;;;7.90;97.30;;;;;;4957892;29;20186;-85
2023/01/04 11:28:02;;;;;;;1.00;0.90;;;7.90;97.30;;;;;;4951947;29;20450;-85
2023/01/04 11:30:44;;;;;;;1.57;1.47;;;7.90;97.30;;;;;;4952034;28;20411;-85
2023/01/04 11:33:20;;;;;;;1.20;1.10;;;7.90;97.30;;;;;;4951613;29;20530;-84
2023/01/04 11:35:49;;;;;;;1.07;0.97;;;7.90;97.30;;;;;;4966774;28;20517;-84
2023/01/04 11:38:22;;;;;;;1.23;1.13;;;8.00;97.30;;;;;;4970874;28;20429;-86
2023/01/04 11:41:01;;;;;;;1.23;1.13;;;8.00;97.30;;;;;;4970737;28;20979;-83
2023/01/04 11:43:29;;;;;;;1.17;1.07;;;7.90;97.30;;;;;;4972252;28;20457;-86
2023/01/04 11:45:54;;;;;;;1.13;1.10;;;7.90;97.30;;;;;;4971080;28;20485;-83
2023/01/04 11:48:40;;;;;;;1.23;1.13;;;7.90;97.30;;;;;;4971425;28;20456;-83
2023/01/04 11:51:27;;;;;;;1.10;1.00;;;7.90;97.30;;;;;;4972268;28;20196;-84
2023/01/04 11:54:00;;;;;;;1.20;1.10;;;7.90;97.30;;;;;;4971048;28;20536;-84
2023/01/04 11:56:31;;;;;;;1.20;1.10;;;7.90;97.30;;;;;;4970742;28;20448;-84
2023/01/04 11:59:16;;;;;;;1.20;1.10;;;7.80;97.30;;;;;;4974669;28;20425;-84
2023/01/04 12:01:44;;;;;;;1.20;1.10;;;7.70;97.30;;;;;;4974715;28;20422;-84
2023/01/04 12:04:22;;;;;;;1.53;1.43;;;7.70;97.30;;;;;;4969993;28;20809;-85
2023/01/04 12:06:53;;;;;;;1.80;1.70;;;7.70;97.30;;;;;;4955487;28;20413;-84
2023/01/04 12:09:20;;;;;;;1.30;1.10;;;7.70;97.30;;;;;;4955142;29;20419;-84
2023/01/04 12:11:52;;;;;;;1.03;0.93;;;7.70;97.30;;;;;;4954432;29;20423;-85
2023/01/04 12:14:21;;;;;;;2.97;1.87;;;7.70;97.30;;;;;;4956165;28;20597;-85
2023/01/04 12:17:06;;;;;;;1.50;1.40;;;7.80;97.30;;;;;;4954622;29;20705;-84
2023/01/04 12:19:34;;;;;;;1.47;1.20;;;7.80;97.30;;;;;;4954974;29;20410;-84
2023/01/04 12:22:01;;;;;;;1.20;1.10;;;7.80;97.30;;;;;;4955124;29;20439;-84
2023/01/04 12:24:32;;;;;;;1.20;1.10;;;7.90;97.30;;;;;;4954613;28;20437;-84
2023/01/04 12:27:00;;;;;;;1.00;0.90;;;7.90;97.30;;;;;;4956551;29;20418;-85
2023/01/04 12:29:43;;;;;;;2.97;1.27;;;8.00;97.30;;;;;;4955311;29;20434;-84
2023/01/04 12:32:12;;;;;;;2.63;1.23;;;8.00;97.30;;;;;;4954321;29;20508;-85
2023/01/04 12:34:47;;;;;;;1.43;1.33;;;8.10;97.30;;;;;;4955039;29;20427;-84
2023/01/04 12:37:41;;;;;;;1.00;0.90;;;8.10;97.30;;;;;;4954290;29;20414;-84
2023/01/04 12:40:44;;;;;;;1.40;1.30;;;8.10;97.30;;;;;;4954989;29;20418;-84
2023/01/04 12:43:15;;;;;;;1.87;1.30;;;8.10;97.30;;;;;;4955456;29;20461;-85
2023/01/04 12:49:02;;;;;;;1.50;1.40;;;8.20;97.30;;;;;;4954633;29;20497;-85
2023/01/04 12:51:22;;;;;;;15.63;2.40;;;8.20;97.30;;;;;;4955974;29;20924;-84
2023/01/04 12:53:49;;;;;;;1.93;1.60;;;8.30;97.30;;;;;;4955239;29;20498;-84
2023/01/04 12:56:15;;;;;;;1.23;1.10;;;8.30;97.30;;;;;;4954452;29;20926;-84
2023/01/04 12:58:41;;;;;;;3.93;1.63;;;8.30;97.30;;;;;;4959718;28;20423;-84
2023/01/04 13:01:19;;;;;;;2.83;1.40;;;8.30;97.30;;;;;;4957882;28;20187;-83
2023/01/04 13:03:47;;;;;;;1.47;1.17;;;8.40;97.30;;;;;;4973017;28;20493;-87
2023/01/04 13:06:12;;;;;;;0.90;0.80;;;8.40;97.30;;;;;;4973306;28;20574;-83
2023/01/04 13:08:43;;;;;;;1.20;1.10;;;8.40;97.30;;;;;;4963434;28;20799;-85
2023/01/04 13:14:18;;;;;;;1.20;1.10;;;8.30;97.30;;;;;;4990395;22;20502;-84
2023/01/04 13:17:27;;;;;;;1.10;1.00;;;8.30;97.30;;;;;;4974874;28;20429;-83
2023/01/04 13:20:29;;;;;;;1.00;0.90;;;8.30;97.30;;;;;;4973425;28;20560;-85
2023/01/04 13:26:49;;;;;;;;;;;;;;;;;;;;;
2023/01/04 13:29:39;;;;;;;1.10;1.00;;;8.50;97.30;;;;;;4994488;28;20915;-84
2023/01/04 13:32:40;;;;;;;;;;;;;;;;;;;;;
2023/01/04 13:35:27;;;;;;;1.20;1.10;;;8.70;97.30;;;;;;4982886;28;20830;-84
2023/01/04 13:37:55;;;;;;;2.00;1.37;;;8.70;97.30;;;;;;4988998;28;20791;-83
2023/01/04 13:40:26;;;;;;;1.13;1.03;;;8.80;97.30;;;;;;4989286;28;20422;-83
2023/01/04 13:43:29;;;;;;;1.00;0.90;;;8.80;97.30;;;;;;4989577;28;20461;-84
2023/01/04 13:46:14;;;;;;;1.20;1.10;;;8.70;97.30;;;;;;4989614;28;20413;-84
2023/01/04 13:48:42;;;;;;;1.00;0.90;;;8.70;97.30;;;;;;4989207;28;20545;-84
2023/01/04 13:51:21;;;;;;;1.10;1.00;;;8.70;97.30;;;;;;4972258;28;20464;-85
2023/01/04 13:53:55;;;;;;;2.40;1.40;;;8.60;97.30;;;;;;4988486;28;20996;-84
2023/01/04 13:56:23;;;;;;;1.43;1.33;;;8.70;97.30;;;;;;4988973;28;20453;-84
2023/01/04 13:58:49;;;;;;;1.00;0.90;;;8.80;97.30;;;;;;4988518;28;20476;-85
2023/01/04 14:01:33;;;;;;;1.10;1.00;;;8.80;97.30;;;;;;4988546;28;20425;-85
2023/01/04 14:04:05;;;;;;;1.00;0.90;;;8.90;97.30;;;;;;4972184;28;20473;-85
2023/01/04 14:06:48;;;;;;;1.10;1.00;;;8.90;97.30;;;;;;4988199;28;20417;-85
2023/01/04 14:09:17;;;;;;;1.00;1.00;;;8.90;97.30;;;;;;4971766;28;20489;-85
2023/01/04 14:11:58;;;;;;;1.13;1.13;;;9.00;97.30;;;;;;4971635;28;20452;-86
2023/01/04 14:14:39;;;;;;;0.90;0.80;;;9.10;97.30;;;;;;4972956;28;20513;-85
2023/01/04 14:17:35;;;;;;;1.03;0.93;;;9.10;97.30;;;;;;4988004;28;20422;-84